Event Log

Records: 253 Pagina: 5 / 11 USB: 6C23CF0BE7 ×
CSV
ID Machine Gebeurtenis Tijd Uren Service Status USB ID
313140 60-029 XAS Generator Over Current Warning 01-10-2025 06:33:13 15921 -Niet ingesteld 6C23CF0BE7
313139 60-029 XAS Engine Start 01-10-2025 06:28:13 15921 -Niet ingesteld 6C23CF0BE7
313138 60-029 XAS Out Of Sync Electrical Trip 01-10-2025 06:27:47 15921 -Niet ingesteld 6C23CF0BE7
313116 60-029 XAS MSC Failure Warning 30-09-2025 19:35:44 15921 -Niet ingesteld 6C23CF0BE7
313105 60-029 XAS Engine Start 30-09-2025 15:14:58 15916 -Niet ingesteld 6C23CF0BE7
312961 60-029 XAS Engine Stopped 30-09-2025 09:55:09 15916 -Niet ingesteld 6C23CF0BE7
312949 60-029 XAS Generator Under Volts Warning 30-09-2025 07:20:24 15914 -Niet ingesteld 6C23CF0BE7
312920 60-029 XAS Engine Start 30-09-2025 05:47:53 15912 -Niet ingesteld 6C23CF0BE7
312896 60-029 XAS Engine Stopped 29-09-2025 21:26:13 15912 -Niet ingesteld 6C23CF0BE7
312869 60-029 XAS Generator Under Volts Warning 29-09-2025 14:15:35 15905 -Niet ingesteld 6C23CF0BE7
312868 60-029 XAS Generator Under Volts Warning 29-09-2025 14:08:40 15905 -Niet ingesteld 6C23CF0BE7
312867 60-029 XAS Generator Under Volts Warning 29-09-2025 13:59:33 15905 -Niet ingesteld 6C23CF0BE7
312516 60-029 XAS MSC Failure Warning 25-09-2025 09:14:17 15902 -Niet ingesteld 6C23CF0BE7
312514 60-029 XAS Engine Stopped 25-09-2025 09:12:48 15902 -Niet ingesteld 6C23CF0BE7
312503 60-029 XAS Engine Start 25-09-2025 07:15:35 15900 -Niet ingesteld 6C23CF0BE7
310389 60-029 XAS kW Overload Alarm Warning 12-09-2025 07:50:02 15899 -Niet ingesteld 6C23CF0BE7
310388 60-029 XAS Engine Stopped 12-09-2025 07:47:37 15899 -Niet ingesteld 6C23CF0BE7
310386 60-029 XAS Low Fuel Level Shutdown 12-09-2025 07:40:37 15899 -Niet ingesteld 6C23CF0BE7
309330 60-029 XAS Engine Stopped 06-09-2025 14:51:36 15879 -Niet ingesteld 6C23CF0BE7
309228 60-029 XAS Generator Over Volts Shutdown 05-09-2025 16:42:47 15857 -Niet ingesteld 6C23CF0BE7
306892 60-029 XAS kW Overload Alarm Warning 25-08-2025 05:21:28 15827 -Niet ingesteld 6C23CF0BE7
304238 60-029 XAS Engine Stopped 18-08-2025 04:46:21 15827 -Niet ingesteld 6C23CF0BE7
298955 60-029 XAS kW Overload Alarm Warning 18-07-2025 06:58:38 15708 -Niet ingesteld 6C23CF0BE7
298954 60-029 XAS Engine Start 18-07-2025 06:55:16 15708 -Niet ingesteld 6C23CF0BE7
298953 60-029 XAS Generator Under Volts Electrical Trip 18-07-2025 06:54:29 15708 -Niet ingesteld 6C23CF0BE7
101–125 van 253